createdAt,value
2023-01-30T00:01:18.201Z,98249.81
2023-01-30T00:03:48.270Z,98249.00
2023-01-30T00:06:16.767Z,98250.63
2023-01-30T00:08:45.604Z,98256.41
2023-01-30T00:11:16.546Z,98251.75
2023-01-30T00:13:45.198Z,98249.00
2023-01-30T00:16:14.143Z,98238.00
2023-01-30T00:18:43.225Z,98230.59
2023-01-30T00:21:15.367Z,98227.84
2023-01-30T00:23:44.697Z,98222.34
2023-01-30T00:26:14.092Z,98210.53
2023-01-30T00:28:44.043Z,98212.44
2023-01-30T00:31:13.572Z,98204.22
2023-01-30T00:33:42.145Z,98209.69
2023-01-30T00:36:12.865Z,98209.69
2023-01-30T00:38:41.305Z,98192.69
2023-01-30T00:41:10.773Z,98186.09
2023-01-30T00:43:56.700Z,98188.81
2023-01-30T00:46:48.027Z,98173.44
2023-01-30T00:49:16.721Z,98178.13
2023-01-30T00:51:46.573Z,98174.56
2023-01-30T00:54:15.025Z,98172.91
2023-01-30T00:56:43.466Z,98175.38
2023-01-30T00:59:11.939Z,98180.34
2023-01-30T01:01:40.611Z,98180.06
2023-01-30T01:04:10.484Z,98192.16
2023-01-30T01:06:39.760Z,98202.31
2023-01-30T01:09:09.829Z,98189.69
2023-01-30T01:11:38.253Z,98203.44
2023-01-30T01:14:08.599Z,98199.88
2023-01-30T01:16:38.074Z,98213.59
2023-01-30T01:19:06.603Z,98204.53
2023-01-30T01:21:35.324Z,98210.84
2023-01-30T01:24:03.945Z,98225.72
2023-01-30T01:26:34.889Z,98232.84
2023-01-30T01:29:04.527Z,98247.69
2023-01-30T01:31:33.049Z,98249.31
2023-01-30T01:34:01.536Z,98253.19
2023-01-30T01:36:52.169Z,98251.53
2023-01-30T01:39:18.474Z,98248.78
2023-01-30T01:41:47.259Z,98262.53
2023-01-30T01:44:17.000Z,98260.91
2023-01-30T01:46:49.693Z,98264.75
2023-01-30T01:49:23.688Z,98259.25
2023-01-30T01:51:56.940Z,98257.63
2023-01-30T01:54:30.800Z,98259.25
2023-01-30T01:57:05.989Z,98263.09
2023-01-30T01:59:41.332Z,98272.47
2023-01-30T02:02:15.420Z,98268.59
2023-01-30T02:05:06.717Z,98250.47
2023-01-30T02:07:40.138Z,98234.81
2023-01-30T02:10:11.556Z,98237.84
2023-01-30T02:12:43.549Z,98244.97
2023-01-30T02:15:12.567Z,98235.91
2023-01-30T02:17:41.881Z,98237.84
2023-01-30T02:20:20.353Z,98238.97
2023-01-30T02:23:19.777Z,98268.06
2023-01-30T02:26:26.859Z,98259.84
2023-01-30T02:29:40.442Z,98241.72
2023-01-30T02:32:20.453Z,98262.03
2023-01-30T02:34:58.198Z,98245.28
2023-01-30T02:37:38.166Z,98243.63
2023-01-30T02:40:19.608Z,98242.00
2023-01-30T02:42:56.951Z,98243.91
2023-01-30T02:45:35.142Z,98232.94
2023-01-30T02:48:08.032Z,98221.94
2023-01-30T02:50:41.652Z,98216.44
2023-01-30T02:53:11.035Z,98213.69
2023-01-30T02:55:42.496Z,98207.63
2023-01-30T02:58:12.007Z,98204.91
2023-01-30T03:01:09.216Z,98213.13
2023-01-30T03:03:57.023Z,98212.03
2023-01-30T03:06:49.520Z,98195.00
2023-01-30T03:09:26.243Z,98209.56
2023-01-30T03:12:04.663Z,98210.38
2023-01-30T03:14:43.533Z,98217.00
2023-01-30T03:17:14.239Z,98217.00
2023-01-30T03:19:44.167Z,98206.81
2023-01-30T03:22:12.807Z,98213.13
2023-01-30T03:24:41.492Z,98192.25
2023-01-30T03:27:12.951Z,98165.91
2023-01-30T03:29:41.877Z,98164.25
2023-01-30T03:32:10.378Z,98150.53
2023-01-30T03:34:38.874Z,98144.22
2023-01-30T03:37:08.848Z,98162.63
2023-01-30T03:39:38.135Z,98161.81
2023-01-30T03:42:08.934Z,98151.63
2023-01-30T03:44:37.501Z,98135.16
2023-01-30T03:47:06.610Z,98113.19
2023-01-30T03:49:35.102Z,98089.56
2023-01-30T03:52:04.196Z,98079.41
2023-01-30T03:54:34.737Z,98090.38
2023-01-30T03:57:03.299Z,98095.06
2023-01-30T03:59:31.786Z,98113.19
2023-01-30T04:02:08.078Z,98106.56
2023-01-30T04:04:36.653Z,98104.94
2023-01-30T04:07:07.711Z,98098.31
2023-01-30T04:09:38.292Z,98089.28
2023-01-30T04:12:07.508Z,98092.84
2023-01-30T04:14:41.424Z,98092.84
2023-01-30T04:17:36.056Z,98098.31
2023-01-30T04:20:12.596Z,98098.31
2023-01-30T04:22:46.898Z,98114.81
2023-01-30T04:25:17.301Z,98118.66
2023-01-30T04:27:46.041Z,98111.25
2023-01-30T04:30:18.567Z,98109.31
2023-01-30T04:32:49.219Z,98104.94
2023-01-30T04:35:18.226Z,98132.13
2023-01-30T04:37:46.887Z,98135.97
2023-01-30T04:40:21.181Z,98129.66
2023-01-30T04:42:49.699Z,98124.16
2023-01-30T04:45:38.391Z,98115.91
2023-01-30T04:48:06.981Z,98111.53
2023-01-30T04:50:36.192Z,98106.88
2023-01-30T04:53:05.817Z,98095.06
2023-01-30T04:55:35.981Z,98079.69
2023-01-30T04:58:04.514Z,98087.09
2023-01-30T05:00:33.062Z,98100.56
2023-01-30T05:03:02.825Z,98102.19
2023-01-30T05:05:31.306Z,98091.19
2023-01-30T05:07:59.771Z,98086.81
2023-01-30T05:10:28.161Z,98086.81
2023-01-30T05:12:57.989Z,98099.44
2023-01-30T05:15:26.576Z,98104.66
2023-01-30T05:17:55.051Z,98102.19
2023-01-30T05:20:24.515Z,98100.25
2023-01-30T05:22:53.100Z,98075.53
2023-01-30T05:25:21.560Z,98073.59
2023-01-30T05:27:50.386Z,98071.97
2023-01-30T05:30:20.879Z,98072.50
2023-01-30T05:32:49.335Z,98073.31
2023-01-30T05:35:18.006Z,98074.13
2023-01-30T05:37:51.279Z,98063.97
2023-01-30T05:40:19.965Z,98060.41
2023-01-30T05:42:48.477Z,98060.41
2023-01-30T05:45:17.311Z,98052.16
2023-01-30T05:47:52.666Z,98053.78
2023-01-30T05:50:22.457Z,98048.59
2023-01-30T05:52:51.195Z,98052.97
2023-01-30T05:55:19.904Z,98046.66
2023-01-30T05:57:48.585Z,98049.41
2023-01-30T06:00:17.796Z,98044.72
2023-01-30T06:02:47.555Z,98035.69
2023-01-30T06:05:16.504Z,98041.44
2023-01-30T06:07:45.602Z,98044.94
2023-01-30T06:10:14.146Z,98043.00
2023-01-30T06:12:43.041Z,98047.69
2023-01-30T06:15:12.870Z,98037.81
2023-01-30T06:17:43.589Z,98036.19
2023-01-30T06:20:14.257Z,98032.59
2023-01-30T06:22:42.677Z,98029.03
2023-01-30T06:25:11.717Z,98024.66
2023-01-30T06:27:40.205Z,98030.16
2023-01-30T06:30:10.246Z,98034.84
2023-01-30T06:32:39.404Z,98043.88
2023-01-30T06:35:08.812Z,98020.28
2023-01-30T06:37:38.654Z,98030.44
2023-01-30T06:40:08.094Z,98033.19
2023-01-30T06:42:36.524Z,98031.25
2023-01-30T06:45:05.749Z,98032.09
2023-01-30T06:47:34.167Z,98024.94
2023-01-30T06:50:02.681Z,98027.69
2023-01-30T06:52:31.166Z,98020.28
2023-01-30T06:55:01.038Z,98025.78
2023-01-30T06:57:29.520Z,98021.91
2023-01-30T06:59:58.314Z,98028.47
2023-01-30T07:02:26.781Z,98032.25
2023-01-30T07:04:55.284Z,98028.34
2023-01-30T07:07:23.781Z,98016.09
2023-01-30T07:10:06.834Z,98023.09
2023-01-30T07:12:37.932Z,98021.25
2023-01-30T07:15:08.048Z,98021.41
2023-01-30T07:17:36.530Z,98020.44
2023-01-30T07:20:05.419Z,98022.00
2023-01-30T07:22:33.852Z,98028.47
2023-01-30T07:25:02.259Z,98029.81
2023-01-30T07:27:30.733Z,98043.28
2023-01-30T07:30:00.493Z,98037.78
2023-01-30T07:32:28.913Z,98038.31
2023-01-30T07:34:57.755Z,98048.22
2023-01-30T07:37:26.226Z,98051.53
2023-01-30T07:39:54.780Z,98046.28
2023-01-30T07:42:23.238Z,98046.78
2023-01-30T07:44:53.770Z,98040.47
2023-01-30T07:47:23.884Z,98040.47
2023-01-30T07:49:52.290Z,98023.97
2023-01-30T07:52:20.764Z,98019.28
2023-01-30T07:54:49.304Z,98020.09
2023-01-30T07:57:17.817Z,98018.97
2023-01-30T07:59:46.263Z,98032.75
2023-01-30T08:02:14.659Z,98033.03
2023-01-30T08:04:45.177Z,98042.09
2023-01-30T08:07:13.627Z,98033.56
2023-01-30T08:09:42.068Z,98030.28
2023-01-30T08:12:10.491Z,98031.91
2023-01-30T08:14:39.073Z,98024.19
2023-01-30T08:17:07.484Z,98020.31
2023-01-30T08:19:35.896Z,98015.63
2023-01-30T08:22:05.754Z,98012.88
2023-01-30T08:24:34.179Z,98024.41
2023-01-30T08:27:03.235Z,98052.97
2023-01-30T08:29:31.933Z,98052.97
2023-01-30T08:32:01.280Z,98063.38
2023-01-30T08:34:29.857Z,98033.63
2023-01-30T08:36:58.287Z,98029.44
2023-01-30T08:39:28.109Z,98026.41
2023-01-30T08:41:56.556Z,98034.88
2023-01-30T08:44:24.973Z,98024.69
2023-01-30T08:46:53.434Z,98020.22
2023-01-30T08:49:21.928Z,98022.66
2023-01-30T08:51:50.882Z,98019.91
2023-01-30T08:54:19.392Z,98018.47
2023-01-30T08:56:49.198Z,98024.50
2023-01-30T08:59:17.974Z,98017.06
2023-01-30T09:01:46.396Z,98007.16
2023-01-30T09:04:15.267Z,97990.34
2023-01-30T09:06:43.888Z,97973.75
2023-01-30T09:09:12.349Z,97974.34
2023-01-30T09:11:41.389Z,97969.97
2023-01-30T09:14:11.245Z,97961.50
2023-01-30T09:16:40.389Z,97929.28
2023-01-30T09:19:08.913Z,97926.44
2023-01-30T09:21:38.880Z,97926.94
2023-01-30T09:24:08.038Z,97930.22
2023-01-30T09:26:36.532Z,97935.72
2023-01-30T09:29:05.084Z,97924.19
2023-01-30T09:31:35.044Z,97928.88
2023-01-30T09:34:03.561Z,97933.06
2023-01-30T09:36:32.111Z,97936.41
2023-01-30T09:39:00.580Z,97922.94
2023-01-30T09:41:45.244Z,97921.63
2023-01-30T09:44:31.013Z,97921.94
2023-01-30T09:47:10.842Z,97927.22
2023-01-30T09:49:47.045Z,97935.78
2023-01-30T09:52:28.102Z,97919.88
2023-01-30T09:55:02.068Z,97919.34
2023-01-30T09:57:30.728Z,97908.13
2023-01-30T10:00:03.935Z,97910.69
2023-01-30T10:02:50.921Z,97906.59
2023-01-30T10:05:19.643Z,97900.06
2023-01-30T10:08:11.091Z,97888.53
2023-01-30T10:10:55.100Z,97891.91
2023-01-30T10:13:44.364Z,97900.44
2023-01-30T10:16:20.330Z,97894.72
2023-01-30T10:19:36.676Z,97897.19
2023-01-30T10:22:17.929Z,97876.56
2023-01-30T10:24:58.858Z,97862.81
2023-01-30T10:27:31.547Z,97863.94
2023-01-30T10:30:03.399Z,97855.16
2023-01-30T10:32:36.948Z,97859.03
2023-01-30T10:35:16.013Z,97864.84
2023-01-30T10:37:52.475Z,97860.75
2023-01-30T10:40:29.141Z,97859.63
2023-01-30T10:43:04.379Z,97863.81
2023-01-30T10:45:39.939Z,97863.81
2023-01-30T10:48:37.824Z,97875.63
2023-01-30T10:51:24.626Z,97860.25
2023-01-30T10:53:57.586Z,97854.75
2023-01-30T10:56:35.453Z,97871.25
2023-01-30T10:59:14.122Z,97860.25
2023-01-30T11:01:45.682Z,97860.25
2023-01-30T11:04:25.025Z,97852.00
2023-01-30T11:06:57.764Z,97837.72
2023-01-30T11:09:38.235Z,97845.47
2023-01-30T11:12:07.016Z,97851.56
2023-01-30T11:14:52.168Z,97848.28
2023-01-30T11:17:22.595Z,97863.47
2023-01-30T11:19:57.495Z,97869.28
2023-01-30T11:22:27.978Z,97859.38
2023-01-30T11:25:06.203Z,97857.75
2023-01-30T11:27:35.903Z,97849.00
2023-01-30T11:30:14.856Z,97851.22
2023-01-30T11:32:44.449Z,97848.47
2023-01-30T11:35:25.357Z,97844.09
2023-01-30T11:37:55.238Z,97837.78
2023-01-30T11:40:27.089Z,97847.13
2023-01-30T11:43:03.248Z,97847.44
2023-01-30T11:45:37.492Z,97855.69
2023-01-30T11:48:31.706Z,97865.06
2023-01-30T11:51:04.455Z,97865.88
2023-01-30T11:53:39.220Z,97865.06
2023-01-30T11:56:14.079Z,97865.56
2023-01-30T11:58:46.317Z,97852.34
2023-01-30T12:01:16.156Z,97861.09
2023-01-30T12:03:51.319Z,97854.50
2023-01-30T12:06:25.197Z,97846.75
2023-01-30T12:08:55.918Z,97843.50
2023-01-30T12:11:44.797Z,97844.59
2023-01-30T12:14:24.188Z,97846.84
2023-01-30T12:16:59.987Z,97838.59
2023-01-30T12:19:50.247Z,97825.16
2023-01-30T12:22:25.569Z,97831.47
2023-01-30T12:25:00.143Z,97818.81
2023-01-30T12:27:48.321Z,97816.06
2023-01-30T12:30:29.355Z,97818.81
2023-01-30T12:35:49.213Z,97824.31
2023-01-30T12:38:32.139Z,97823.81
2023-01-30T12:41:18.047Z,97823.81
2023-01-30T12:44:06.242Z,97824.94
2023-01-30T12:46:52.279Z,97818.75
2023-01-30T12:49:39.118Z,97822.53
2023-01-30T12:52:25.343Z,97825.19
2023-01-30T12:55:02.664Z,97831.72
2023-01-30T12:57:37.975Z,97840.47
2023-01-30T13:00:20.948Z,97842.91
2023-01-30T13:03:06.260Z,97841.00
2023-01-30T13:05:43.530Z,97844.56
2023-01-30T13:08:33.522Z,97849.25
2023-01-30T13:11:16.545Z,97837.72
2023-01-30T13:13:53.954Z,97836.91
2023-01-30T13:16:30.328Z,97842.72
2023-01-30T13:19:05.201Z,97837.81
2023-01-30T13:21:42.369Z,97845.53
2023-01-30T13:24:22.689Z,97851.56
2023-01-30T13:26:53.906Z,97855.34
2023-01-30T13:29:30.041Z,97848.41
2023-01-30T13:32:02.742Z,97861.28
2023-01-30T13:34:35.064Z,97863.34
2023-01-30T13:37:07.872Z,97867.13
2023-01-30T13:39:42.594Z,97864.81
2023-01-30T13:42:18.314Z,97870.13
2023-01-30T13:44:50.027Z,97883.19
2023-01-30T13:47:29.014Z,97884.09
2023-01-30T13:50:07.637Z,97883.00
2023-01-30T13:52:42.992Z,97895.84
2023-01-30T13:55:24.263Z,97879.00
2023-01-30T13:58:00.547Z,97888.91
2023-01-30T14:00:34.481Z,97880.13
2023-01-30T14:03:24.176Z,97872.38
2023-01-30T14:06:40.240Z,97894.63
2023-01-30T14:09:21.754Z,97896.97
2023-01-30T14:11:58.118Z,97895.25
2023-01-30T14:14:30.627Z,97904.53
2023-01-30T14:17:12.231Z,97915.44
2023-01-30T14:19:44.607Z,97934.41
2023-01-30T14:22:26.066Z,97929.94
2023-01-30T14:25:36.089Z,97910.44
2023-01-30T14:28:50.939Z,97910.94
2023-01-30T14:31:55.760Z,97914.66
2023-01-30T14:35:13.954Z,97922.88
2023-01-30T14:38:09.751Z,97923.97
2023-01-30T14:40:54.001Z,97932.44
2023-01-30T14:44:00.864Z,97936.22
2023-01-30T14:46:56.053Z,97945.84
2023-01-30T14:49:32.909Z,97951.22
2023-01-30T14:52:04.302Z,97956.13
2023-01-30T14:54:44.707Z,97955.50
2023-01-30T14:57:27.608Z,97969.19
2023-01-30T15:00:15.069Z,97980.59
2023-01-30T15:02:52.103Z,97986.75
2023-01-30T15:05:27.529Z,97987.38
2023-01-30T15:08:03.559Z,97990.25
2023-01-30T15:11:09.664Z,97992.09
2023-01-30T15:13:53.207Z,98015.19
2023-01-30T15:16:45.725Z,98022.75
2023-01-30T15:19:32.475Z,98013.97
2023-01-30T15:22:13.202Z,98021.13
2023-01-30T15:25:08.887Z,98010.09
2023-01-30T15:27:53.329Z,98024.50
2023-01-30T15:30:32.000Z,98029.50
2023-01-30T15:33:22.971Z,98025.75
2023-01-30T15:35:58.252Z,98036.47
2023-01-30T15:38:29.784Z,98036.66
2023-01-30T15:41:01.686Z,98036.03
2023-01-30T15:43:52.774Z,98042.06
2023-01-30T15:46:31.115Z,98043.19
2023-01-30T15:49:17.113Z,98054.34
2023-01-30T15:51:45.697Z,98054.66
2023-01-30T15:54:19.321Z,98064.25
2023-01-30T15:56:49.913Z,98068.31
2023-01-30T15:59:30.318Z,98063.63
2023-01-30T16:02:05.112Z,98063.63
2023-01-30T16:04:33.631Z,98067.31
2023-01-30T16:07:15.401Z,98068.94
2023-01-30T16:09:49.595Z,98069.97
2023-01-30T16:12:25.156Z,98059.75
2023-01-30T16:15:03.200Z,98059.75
2023-01-30T16:17:41.337Z,98083.25
2023-01-30T16:20:15.316Z,98081.41
2023-01-30T16:22:46.111Z,98085.28
2023-01-30T16:25:22.476Z,98087.22
2023-01-30T16:27:53.599Z,98088.97
2023-01-30T16:30:29.727Z,98089.56
2023-01-30T16:32:58.429Z,98092.63
2023-01-30T16:35:34.221Z,98094.78
2023-01-30T16:38:05.406Z,98102.97
2023-01-30T16:40:45.807Z,98112.25
2023-01-30T16:43:18.871Z,98129.81
2023-01-30T16:46:22.957Z,98119.00
2023-01-30T16:48:53.111Z,98114.81
2023-01-30T16:51:24.072Z,98114.28
2023-01-30T16:54:00.613Z,98114.91
2023-01-30T16:56:31.397Z,98110.22
2023-01-30T16:59:02.369Z,98115.09
2023-01-30T17:01:42.302Z,98115.94
2023-01-30T17:04:21.338Z,98120.41
2023-01-30T17:06:54.341Z,98112.66
2023-01-30T17:09:44.341Z,98121.66
2023-01-30T17:12:37.040Z,98132.88
2023-01-30T17:15:32.078Z,98131.25
2023-01-30T17:18:01.006Z,98135.94
2023-01-30T17:20:39.048Z,98144.84
2023-01-30T17:23:10.793Z,98146.38
2023-01-30T17:25:43.968Z,98149.94
2023-01-30T17:28:18.861Z,98150.25
2023-01-30T17:30:47.613Z,98149.13
2023-01-30T17:33:16.162Z,98155.78
2023-01-30T17:35:46.361Z,98155.25
2023-01-30T17:38:15.001Z,98152.00
2023-01-30T17:40:43.909Z,98149.84
2023-01-30T17:43:13.136Z,98162.50
2023-01-30T17:45:41.849Z,98167.72
2023-01-30T17:48:13.049Z,98166.38
2023-01-30T17:50:41.580Z,98163.72
2023-01-30T17:53:11.417Z,98177.00
2023-01-30T17:55:40.616Z,98164.34
2023-01-30T17:58:16.948Z,98174.75
2023-01-30T18:00:45.908Z,98175.56
2023-01-30T18:03:14.540Z,98189.06
2023-01-30T18:05:43.335Z,98190.69
2023-01-30T18:08:14.058Z,98199.47
2023-01-30T18:10:42.556Z,98201.22
2023-01-30T18:13:11.039Z,98208.16
2023-01-30T18:15:39.599Z,98214.56
2023-01-30T18:18:12.697Z,98219.06
2023-01-30T18:20:41.093Z,98219.19
2023-01-30T18:23:09.608Z,98225.28
2023-01-30T18:25:39.425Z,98231.94
2023-01-30T18:28:08.568Z,98234.16
2023-01-30T18:30:37.109Z,98238.88
2023-01-30T18:33:05.490Z,98239.75
2023-01-30T18:35:33.975Z,98243.94
2023-01-30T18:38:03.093Z,98249.47
2023-01-30T18:40:31.689Z,98244.75
2023-01-30T18:43:01.567Z,98253.56
2023-01-30T18:45:29.959Z,98249.69
2023-01-30T18:47:58.552Z,98256.81
2023-01-30T18:50:27.032Z,98262.34
2023-01-30T18:52:55.541Z,98271.13
2023-01-30T18:55:25.519Z,98268.06
2023-01-30T18:57:54.044Z,98270.53
2023-01-30T19:00:24.704Z,98276.03
2023-01-30T19:02:54.155Z,98273.81
2023-01-30T19:05:22.576Z,98275.44
2023-01-30T19:07:51.035Z,98279.50
2023-01-30T19:10:20.463Z,98282.59
2023-01-30T19:13:06.542Z,98291.16
2023-01-30T19:15:37.400Z,98287.06
2023-01-30T19:18:06.010Z,98296.47
2023-01-30T19:20:34.435Z,98300.34
2023-01-30T19:23:02.985Z,98311.34
2023-01-30T19:25:31.570Z,98312.19
2023-01-30T19:28:00.052Z,98313.00
2023-01-30T19:30:29.369Z,98314.63
2023-01-30T19:32:59.308Z,98329.25
2023-01-30T19:35:28.389Z,98329.03
2023-01-30T19:38:00.125Z,98332.91
2023-01-30T19:40:28.830Z,98327.69
2023-01-30T19:43:09.277Z,98330.94
2023-01-30T19:45:40.198Z,98319.09
2023-01-30T19:48:13.150Z,98320.16
2023-01-30T19:50:41.541Z,98319.53
2023-01-30T19:53:09.996Z,98307.88
2023-01-30T19:55:38.402Z,98325.47
2023-01-30T19:58:06.899Z,98320.19
2023-01-30T20:00:35.501Z,98325.38
2023-01-30T20:03:04.108Z,98322.63
2023-01-30T20:05:34.089Z,98328.16
2023-01-30T20:08:03.174Z,98336.72
2023-01-30T20:10:31.632Z,98357.97
2023-01-30T20:13:00.156Z,98355.19
2023-01-30T20:15:28.865Z,98363.19
2023-01-30T20:17:57.378Z,98362.06
2023-01-30T20:20:25.913Z,98364.50
2023-01-30T20:22:55.729Z,98361.75
2023-01-30T20:25:24.254Z,98356.75
2023-01-30T20:27:52.774Z,98369.94
2023-01-30T20:30:21.767Z,98374.44
2023-01-30T20:32:54.928Z,98382.78
2023-01-30T20:35:23.384Z,98386.72
2023-01-30T20:37:52.722Z,98381.09
2023-01-30T20:40:22.597Z,98391.97
2023-01-30T20:42:51.235Z,98387.72
2023-01-30T20:45:19.792Z,98387.56
2023-01-30T20:47:48.623Z,98390.94
2023-01-30T20:50:18.128Z,98393.53
2023-01-30T20:52:51.414Z,98395.28
2023-01-30T20:55:20.669Z,98389.84
2023-01-30T20:57:51.012Z,98392.66
2023-01-30T21:00:20.489Z,98395.19
2023-01-30T21:02:52.295Z,98388.38
2023-01-30T21:05:21.109Z,98384.88
2023-01-30T21:07:49.754Z,98385.44
2023-01-30T21:10:18.321Z,98386.63
2023-01-30T21:12:46.912Z,98383.09
2023-01-30T21:15:17.265Z,98388.94
2023-01-30T21:17:47.503Z,98383.22
2023-01-30T21:20:16.526Z,98383.50
2023-01-30T21:22:45.085Z,98389.06
2023-01-30T21:25:13.566Z,98396.53
2023-01-30T21:27:42.014Z,98389.41
2023-01-30T21:30:11.555Z,98392.75
2023-01-30T21:32:41.426Z,98403.22
2023-01-30T21:35:10.437Z,98401.03
2023-01-30T21:37:56.323Z,98406.00
2023-01-30T21:40:42.560Z,98409.34
2023-01-30T21:43:16.423Z,98408.28
2023-01-30T21:45:44.975Z,98412.13
2023-01-30T21:48:14.904Z,98417.13
2023-01-30T21:50:43.358Z,98424.56
2023-01-30T21:53:11.791Z,98426.22
2023-01-30T21:55:40.312Z,98427.03
2023-01-30T21:58:08.879Z,98436.09
2023-01-30T22:00:37.756Z,98434.47
2023-01-30T22:03:06.289Z,98430.34
2023-01-30T22:05:36.964Z,98428.47
2023-01-30T22:08:06.029Z,98433.72
2023-01-30T22:10:34.515Z,98434.28
2023-01-30T22:13:03.014Z,98427.44
2023-01-30T22:15:33.729Z,98445.03
2023-01-30T22:18:03.462Z,98440.09
2023-01-30T22:20:31.902Z,98443.97
2023-01-30T22:23:01.711Z,98442.84
2023-01-30T22:25:30.118Z,98440.69
2023-01-30T22:27:58.545Z,98447.00
2023-01-30T22:30:26.977Z,98443.44
2023-01-30T22:32:55.813Z,98429.44
2023-01-30T22:35:24.293Z,98436.06
2023-01-30T22:37:52.690Z,98448.16
2023-01-30T22:40:22.476Z,98447.63
2023-01-30T22:42:50.885Z,98446.53
2023-01-30T22:45:19.694Z,98448.75
2023-01-30T22:47:48.315Z,98450.38
2023-01-30T22:50:17.481Z,98450.09
2023-01-30T22:52:45.859Z,98451.50
2023-01-30T22:55:14.260Z,98456.16
2023-01-30T22:57:43.970Z,98450.41
2023-01-30T23:00:12.885Z,98454.25
2023-01-30T23:02:41.332Z,98441.94
2023-01-30T23:05:10.223Z,98448.25
2023-01-30T23:07:39.205Z,98455.97
2023-01-30T23:10:08.625Z,98450.75
2023-01-30T23:12:54.659Z,98442.50
2023-01-30T23:15:24.430Z,98452.13
2023-01-30T23:18:10.595Z,98449.41
2023-01-30T23:20:39.144Z,98453.56
2023-01-30T23:23:07.736Z,98456.28
2023-01-30T23:25:41.248Z,98444.72
2023-01-30T23:28:10.164Z,98445.03
2023-01-30T23:30:40.415Z,98446.38
2023-01-30T23:33:08.932Z,98448.84
2023-01-30T23:35:37.758Z,98445.00
2023-01-30T23:38:20.092Z,98439.50
2023-01-30T23:40:49.906Z,98442.00
2023-01-30T23:43:19.324Z,98449.41
2023-01-30T23:45:53.811Z,98445.03
2023-01-30T23:48:22.330Z,98447.22
2023-01-30T23:50:50.771Z,98443.91
2023-01-30T23:53:19.193Z,98457.09
2023-01-30T23:55:54.334Z,98445.59
2023-01-30T23:58:23.164Z,98443.13
